sensor_id;sensor_type;location;lat;lon;timestamp;noise_LAeq;noise_LA_min;noise_LA_max;noise_LA01;noise_LA95
66463;Laerm;56827;52.178;4.500;2023-05-09T00:00:09;34.72;31.57;39.13;;
66463;Laerm;56827;52.178;4.500;2023-05-09T00:00:20;35.02;31.08;41.45;;
66463;Laerm;56827;52.178;4.500;2023-05-09T00:00:30;33.75;31.08;37.18;;
66463;Laerm;56827;52.178;4.500;2023-05-09T00:00:41;33.88;30.96;39.76;;
66463;Laerm;56827;52.178;4.500;2023-05-09T00:00:51;32.64;30.64;37.63;;
66463;Laerm;56827;52.178;4.500;2023-05-09T00:01:05;32.20;30.08;35.71;;
66463;Laerm;56827;52.178;4.500;2023-05-09T00:01:15;32.38;29.93;37.74;;
66463;Laerm;56827;52.178;4.500;2023-05-09T00:01:26;31.12;29.70;32.52;;
66463;Laerm;56827;52.178;4.500;2023-05-09T00:01:38;30.89;29.25;32.62;;
66463;Laerm;56827;52.178;4.500;2023-05-09T00:01:50;30.93;29.34;33.32;;
66463;Laerm;56827;52.178;4.500;2023-05-09T00:02:00;30.97;29.81;32.56;;
66463;Laerm;56827;52.178;4.500;2023-05-09T00:02:11;31.07;29.73;32.44;;
66463;Laerm;56827;52.178;4.500;2023-05-09T00:02:21;30.80;29.57;32.14;;
66463;Laerm;56827;52.178;4.500;2023-05-09T00:02:32;31.00;29.60;32.84;;
66463;Laerm;56827;52.178;4.500;2023-05-09T00:02:43;30.89;29.64;32.45;;
66463;Laerm;56827;52.178;4.500;2023-05-09T00:02:54;30.88;29.57;32.07;;
66463;Laerm;56827;52.178;4.500;2023-05-09T00:03:05;31.24;29.69;33.56;;
66463;Laerm;56827;52.178;4.500;2023-05-09T00:03:15;30.85;29.63;32.97;;
66463;Laerm;56827;52.178;4.500;2023-05-09T00:03:26;31.09;29.76;32.86;;
66463;Laerm;56827;52.178;4.500;2023-05-09T00:03:37;31.02;29.75;32.94;;
66463;Laerm;56827;52.178;4.500;2023-05-09T00:03:47;31.10;29.38;32.55;;
66463;Laerm;56827;52.178;4.500;2023-05-09T00:04:00;30.89;29.49;34.54;;
66463;Laerm;56827;52.178;4.500;2023-05-09T00:04:10;30.48;29.44;31.62;;
66463;Laerm;56827;52.178;4.500;2023-05-09T00:04:20;30.57;29.20;35.80;;
66463;Laerm;56827;52.178;4.500;2023-05-09T00:04:31;30.50;29.16;32.18;;
66463;Laerm;56827;52.178;4.500;2023-05-09T00:04:41;30.34;29.09;31.81;;
66463;Laerm;56827;52.178;4.500;2023-05-09T00:04:51;30.85;29.64;32.14;;
66463;Laerm;56827;52.178;4.500;2023-05-09T00:05:02;30.74;29.40;32.18;;
66463;Laerm;56827;52.178;4.500;2023-05-09T00:05:12;30.63;29.49;34.13;;
66463;Laerm;56827;52.178;4.500;2023-05-09T00:05:23;30.70;29.32;32.36;;
66463;Laerm;56827;52.178;4.500;2023-05-09T00:05:34;31.09;29.81;33.75;;
66463;Laerm;56827;52.178;4.500;2023-05-09T00:05:44;31.05;29.70;33.75;;
66463;Laerm;56827;52.178;4.500;2023-05-09T00:05:55;31.01;29.82;32.24;;
66463;Laerm;56827;52.178;4.500;2023-05-09T00:06:05;30.79;29.43;32.32;;
66463;Laerm;56827;52.178;4.500;2023-05-09T00:06:16;30.60;29.27;32.69;;
66463;Laerm;56827;52.178;4.500;2023-05-09T00:06:26;30.62;29.40;33.47;;
66463;Laerm;56827;52.178;4.500;2023-05-09T00:06:39;30.74;29.33;32.19;;
66463;Laerm;56827;52.178;4.500;2023-05-09T00:06:50;30.81;29.12;32.99;;
66463;Laerm;56827;52.178;4.500;2023-05-09T00:07:00;30.74;29.00;34.31;;
66463;Laerm;56827;52.178;4.500;2023-05-09T00:07:10;30.67;29.32;31.91;;
66463;Laerm;56827;52.178;4.500;2023-05-09T00:07:21;30.71;29.30;32.56;;
66463;Laerm;56827;52.178;4.500;2023-05-09T00:07:31;30.84;29.32;33.27;;
66463;Laerm;56827;52.178;4.500;2023-05-09T00:07:41;30.76;29.65;32.30;;
66463;Laerm;56827;52.178;4.500;2023-05-09T00:07:51;31.93;29.34;34.07;;
66463;Laerm;56827;52.178;4.500;2023-05-09T00:08:02;31.79;30.21;33.56;;
66463;Laerm;56827;52.178;4.500;2023-05-09T00:08:12;33.30;30.85;36.68;;
66463;Laerm;56827;52.178;4.500;2023-05-09T00:08:22;33.73;31.16;37.22;;
66463;Laerm;56827;52.178;4.500;2023-05-09T00:08:33;32.12;29.54;35.38;;
66463;Laerm;56827;52.178;4.500;2023-05-09T00:08:43;31.43;30.11;33.48;;
66463;Laerm;56827;52.178;4.500;2023-05-09T00:08:53;31.46;30.03;33.49;;
66463;Laerm;56827;52.178;4.500;2023-05-09T00:09:03;31.03;29.34;33.37;;
66463;Laerm;56827;52.178;4.500;2023-05-09T00:09:14;30.80;29.22;32.35;;
66463;Laerm;56827;52.178;4.500;2023-05-09T00:09:24;30.69;29.22;33.62;;
66463;Laerm;56827;52.178;4.500;2023-05-09T00:09:34;30.72;29.34;31.68;;
66463;Laerm;56827;52.178;4.500;2023-05-09T00:09:44;31.04;29.54;32.81;;
66463;Laerm;56827;52.178;4.500;2023-05-09T00:09:55;30.85;29.24;32.34;;
66463;Laerm;56827;52.178;4.500;2023-05-09T00:10:05;31.08;29.54;39.01;;
66463;Laerm;56827;52.178;4.500;2023-05-09T00:10:15;31.04;29.65;32.98;;
66463;Laerm;56827;52.178;4.500;2023-05-09T00:10:26;30.78;28.94;32.25;;
66463;Laerm;56827;52.178;4.500;2023-05-09T00:10:36;30.66;29.49;32.23;;
66463;Laerm;56827;52.178;4.500;2023-05-09T00:10:46;30.76;29.37;32.50;;
66463;Laerm;56827;52.178;4.500;2023-05-09T00:10:56;30.53;28.81;32.16;;
66463;Laerm;56827;52.178;4.500;2023-05-09T00:11:07;30.34;28.68;31.92;;
66463;Laerm;56827;52.178;4.500;2023-05-09T00:11:17;30.99;29.25;33.21;;
66463;Laerm;56827;52.178;4.500;2023-05-09T00:11:27;32.89;31.64;34.19;;
66463;Laerm;56827;52.178;4.500;2023-05-09T00:11:37;32.21;30.28;33.89;;
66463;Laerm;56827;52.178;4.500;2023-05-09T00:11:48;32.66;30.92;34.80;;
66463;Laerm;56827;52.178;4.500;2023-05-09T00:11:58;33.82;32.17;39.14;;
66463;Laerm;56827;52.178;4.500;2023-05-09T00:12:08;32.90;30.20;35.31;;
66463;Laerm;56827;52.178;4.500;2023-05-09T00:12:18;32.23;29.92;36.31;;
66463;Laerm;56827;52.178;4.500;2023-05-09T00:12:29;32.65;30.86;36.08;;
66463;Laerm;56827;52.178;4.500;2023-05-09T00:12:39;31.11;29.30;33.27;;
66463;Laerm;56827;52.178;4.500;2023-05-09T00:12:50;30.90;29.14;33.78;;
66463;Laerm;56827;52.178;4.500;2023-05-09T00:13:03;30.84;29.74;32.40;;
66463;Laerm;56827;52.178;4.500;2023-05-09T00:13:13;31.51;29.68;44.13;;
66463;Laerm;56827;52.178;4.500;2023-05-09T00:13:24;31.86;29.88;33.17;;
66463;Laerm;56827;52.178;4.500;2023-05-09T00:13:34;32.24;30.84;33.49;;
66463;Laerm;56827;52.178;4.500;2023-05-09T00:13:49;31.74;30.49;33.24;;
66463;Laerm;56827;52.178;4.500;2023-05-09T00:14:00;31.47;29.56;33.14;;
66463;Laerm;56827;52.178;4.500;2023-05-09T00:14:11;30.67;29.50;31.99;;
66463;Laerm;56827;52.178;4.500;2023-05-09T00:14:22;31.00;29.77;35.02;;
66463;Laerm;56827;52.178;4.500;2023-05-09T00:14:33;30.98;29.57;32.56;;
66463;Laerm;56827;52.178;4.500;2023-05-09T00:14:43;30.67;29.22;32.30;;
66463;Laerm;56827;52.178;4.500;2023-05-09T00:14:54;30.53;29.12;31.95;;
66463;Laerm;56827;52.178;4.500;2023-05-09T00:15:05;30.55;29.23;31.98;;
66463;Laerm;56827;52.178;4.500;2023-05-09T00:15:19;31.56;29.32;34.70;;
66463;Laerm;56827;52.178;4.500;2023-05-09T00:15:29;32.44;31.01;34.25;;
66463;Laerm;56827;52.178;4.500;2023-05-09T00:15:40;32.26;30.36;33.67;;
66463;Laerm;56827;52.178;4.500;2023-05-09T00:15:51;32.08;30.68;33.82;;
66463;Laerm;56827;52.178;4.500;2023-05-09T00:16:06;31.50;30.13;33.42;;
66463;Laerm;56827;52.178;4.500;2023-05-09T00:16:17;31.79;30.26;33.69;;
66463;Laerm;56827;52.178;4.500;2023-05-09T00:16:27;31.91;29.92;33.68;;
66463;Laerm;56827;52.178;4.500;2023-05-09T00:16:37;31.03;29.72;32.31;;
66463;Laerm;56827;52.178;4.500;2023-05-09T00:16:48;31.53;30.22;33.77;;
66463;Laerm;56827;52.178;4.500;2023-05-09T00:16:59;31.12;29.61;33.62;;
66463;Laerm;56827;52.178;4.500;2023-05-09T00:17:09;30.53;29.30;33.06;;
66463;Laerm;56827;52.178;4.500;2023-05-09T00:17:24;30.74;28.99;32.83;;
66463;Laerm;56827;52.178;4.500;2023-05-09T00:17:35;30.84;29.58;32.85;;
66463;Laerm;56827;52.178;4.500;2023-05-09T00:17:47;30.71;29.46;31.95;;
66463;Laerm;56827;52.178;4.500;2023-05-09T00:17:57;30.62;29.21;32.69;;
66463;Laerm;56827;52.178;4.500;2023-05-09T00:18:08;30.61;29.34;33.21;;
66463;Laerm;56827;52.178;4.500;2023-05-09T00:18:19;30.84;29.52;32.53;;
66463;Laerm;56827;52.178;4.500;2023-05-09T00:18:29;30.71;29.45;32.07;;
66463;Laerm;56827;52.178;4.500;2023-05-09T00:18:40;31.15;29.51;33.39;;
66463;Laerm;56827;52.178;4.500;2023-05-09T00:18:51;31.32;30.09;32.97;;
66463;Laerm;56827;52.178;4.500;2023-05-09T00:19:01;30.96;29.79;32.33;;
66463;Laerm;56827;52.178;4.500;2023-05-09T00:19:12;30.84;29.39;35.96;;
66463;Laerm;56827;52.178;4.500;2023-05-09T00:19:23;31.07;29.31;34.71;;
66463;Laerm;56827;52.178;4.500;2023-05-09T00:19:33;31.25;29.70;33.94;;
66463;Laerm;56827;52.178;4.500;2023-05-09T00:19:43;30.92;29.70;32.84;;
66463;Laerm;56827;52.178;4.500;2023-05-09T00:19:53;31.16;29.60;32.72;;
66463;Laerm;56827;52.178;4.500;2023-05-09T00:20:05;30.96;29.77;32.50;;
66463;Laerm;56827;52.178;4.500;2023-05-09T00:20:18;31.44;29.92;32.85;;
66463;Laerm;56827;52.178;4.500;2023-05-09T00:20:29;32.25;30.75;34.78;;
66463;Laerm;56827;52.178;4.500;2023-05-09T00:20:39;32.93;31.17;36.48;;
66463;Laerm;56827;52.178;4.500;2023-05-09T00:20:50;37.44;30.97;48.08;;
66463;Laerm;56827;52.178;4.500;2023-05-09T00:21:02;33.33;30.31;38.54;;
66463;Laerm;56827;52.178;4.500;2023-05-09T00:21:15;31.09;29.54;33.53;;
66463;Laerm;56827;52.178;4.500;2023-05-09T00:21:25;31.39;30.13;33.97;;
66463;Laerm;56827;52.178;4.500;2023-05-09T00:21:37;31.74;29.40;43.32;;
66463;Laerm;56827;52.178;4.500;2023-05-09T00:21:47;31.00;29.61;33.83;;
66463;Laerm;56827;52.178;4.500;2023-05-09T00:21:58;31.26;29.82;35.24;;
66463;Laerm;56827;52.178;4.500;2023-05-09T00:22:08;31.14;29.94;32.67;;
66463;Laerm;56827;52.178;4.500;2023-05-09T00:22:18;31.09;29.70;33.21;;
66463;Laerm;56827;52.178;4.500;2023-05-09T00:22:30;31.60;29.81;33.24;;
66463;Laerm;56827;52.178;4.500;2023-05-09T00:22:40;31.32;30.03;33.35;;
66463;Laerm;56827;52.178;4.500;2023-05-09T00:22:51;32.16;30.43;35.06;;
66463;Laerm;56827;52.178;4.500;2023-05-09T00:23:01;31.88;30.26;33.40;;
66463;Laerm;56827;52.178;4.500;2023-05-09T00:23:11;31.16;29.69;33.08;;
66463;Laerm;56827;52.178;4.500;2023-05-09T00:23:22;31.39;29.93;33.56;;
66463;Laerm;56827;52.178;4.500;2023-05-09T00:23:32;32.45;30.18;35.15;;
66463;Laerm;56827;52.178;4.500;2023-05-09T00:23:42;32.71;30.77;34.27;;
66463;Laerm;56827;52.178;4.500;2023-05-09T00:23:53;32.51;30.36;34.45;;
66463;Laerm;56827;52.178;4.500;2023-05-09T00:24:03;31.16;29.78;32.70;;
66463;Laerm;56827;52.178;4.500;2023-05-09T00:24:13;31.56;29.99;33.58;;
66463;Laerm;56827;52.178;4.500;2023-05-09T00:24:24;31.30;29.87;33.26;;
66463;Laerm;56827;52.178;4.500;2023-05-09T00:24:34;31.62;30.25;32.68;;
66463;Laerm;56827;52.178;4.500;2023-05-09T00:24:44;33.14;29.44;48.69;;
66463;Laerm;56827;52.178;4.500;2023-05-09T00:24:54;30.83;29.62;33.43;;
66463;Laerm;56827;52.178;4.500;2023-05-09T00:25:05;30.89;29.22;33.13;;
66463;Laerm;56827;52.178;4.500;2023-05-09T00:25:16;31.29;29.75;32.95;;
66463;Laerm;56827;52.178;4.500;2023-05-09T00:25:26;31.22;29.61;32.97;;
66463;Laerm;56827;52.178;4.500;2023-05-09T00:25:37;31.73;30.44;33.27;;
66463;Laerm;56827;52.178;4.500;2023-05-09T00:25:47;31.41;29.84;33.69;;
66463;Laerm;56827;52.178;4.500;2023-05-09T00:25:57;31.21;30.06;32.77;;
66463;Laerm;56827;52.178;4.500;2023-05-09T00:26:08;31.35;29.87;33.18;;
66463;Laerm;56827;52.178;4.500;2023-05-09T00:26:19;30.91;29.31;32.45;;
66463;Laerm;56827;52.178;4.500;2023-05-09T00:26:30;31.27;29.83;36.77;;
66463;Laerm;56827;52.178;4.500;2023-05-09T00:26:40;31.57;29.86;34.31;;
66463;Laerm;56827;52.178;4.500;2023-05-09T00:26:51;31.15;29.55;32.89;;
66463;Laerm;56827;52.178;4.500;2023-05-09T00:27:01;31.39;30.05;33.22;;
66463;Laerm;56827;52.178;4.500;2023-05-09T00:27:11;31.52;30.39;32.90;;
66463;Laerm;56827;52.178;4.500;2023-05-09T00:27:21;31.54;29.65;33.09;;
66463;Laerm;56827;52.178;4.500;2023-05-09T00:27:31;31.11;29.52;32.92;;
66463;Laerm;56827;52.178;4.500;2023-05-09T00:27:42;30.77;29.46;32.08;;
66463;Laerm;56827;52.178;4.500;2023-05-09T00:27:52;31.05;29.58;32.36;;
66463;Laerm;56827;52.178;4.500;2023-05-09T00:28:02;31.44;30.04;33.34;;
66463;Laerm;56827;52.178;4.500;2023-05-09T00:28:12;31.51;29.88;34.70;;
66463;Laerm;56827;52.178;4.500;2023-05-09T00:28:22;31.44;30.24;33.24;;
66463;Laerm;56827;52.178;4.500;2023-05-09T00:28:33;32.61;30.89;34.39;;
66463;Laerm;56827;52.178;4.500;2023-05-09T00:28:43;32.32;30.03;34.84;;
66463;Laerm;56827;52.178;4.500;2023-05-09T00:28:53;31.66;30.43;33.55;;
66463;Laerm;56827;52.178;4.500;2023-05-09T00:29:03;31.23;29.88;35.67;;
66463;Laerm;56827;52.178;4.500;2023-05-09T00:29:14;31.01;29.72;32.29;;
66463;Laerm;56827;52.178;4.500;2023-05-09T00:29:24;31.04;29.56;32.36;;
66463;Laerm;56827;52.178;4.500;2023-05-09T00:29:34;30.97;29.68;32.57;;
66463;Laerm;56827;52.178;4.500;2023-05-09T00:29:44;31.18;29.57;35.84;;
66463;Laerm;56827;52.178;4.500;2023-05-09T00:29:55;30.82;29.34;31.97;;
66463;Laerm;56827;52.178;4.500;2023-05-09T00:30:05;31.40;29.85;33.02;;
66463;Laerm;56827;52.178;4.500;2023-05-09T00:30:16;31.45;29.89;33.20;;
66463;Laerm;56827;52.178;4.500;2023-05-09T00:30:26;30.88;29.33;32.36;;
66463;Laerm;56827;52.178;4.500;2023-05-09T00:30:36;30.85;29.31;32.55;;
66463;Laerm;56827;52.178;4.500;2023-05-09T00:30:47;31.49;29.65;33.10;;
66463;Laerm;56827;52.178;4.500;2023-05-09T00:30:57;31.11;29.44;33.84;;
66463;Laerm;56827;52.178;4.500;2023-05-09T00:31:07;31.07;29.60;32.63;;
66463;Laerm;56827;52.178;4.500;2023-05-09T00:31:18;30.98;29.58;32.17;;
66463;Laerm;56827;52.178;4.500;2023-05-09T00:31:28;31.62;30.06;34.89;;
66463;Laerm;56827;52.178;4.500;2023-05-09T00:31:39;31.04;29.41;32.75;;
66463;Laerm;56827;52.178;4.500;2023-05-09T00:31:49;30.84;29.60;32.50;;
66463;Laerm;56827;52.178;4.500;2023-05-09T00:31:59;30.62;29.03;32.59;;
66463;Laerm;56827;52.178;4.500;2023-05-09T00:32:10;30.59;29.29;31.92;;
66463;Laerm;56827;52.178;4.500;2023-05-09T00:32:20;30.75;29.58;32.24;;
66463;Laerm;56827;52.178;4.500;2023-05-09T00:32:31;31.07;29.72;32.50;;
66463;Laerm;56827;52.178;4.500;2023-05-09T00:32:41;30.95;29.39;32.87;;
66463;Laerm;56827;52.178;4.500;2023-05-09T00:32:52;30.85;29.63;32.64;;
66463;Laerm;56827;52.178;4.500;2023-05-09T00:33:02;30.80;29.50;32.28;;
66463;Laerm;56827;52.178;4.500;2023-05-09T00:33:12;30.68;29.14;32.15;;
66463;Laerm;56827;52.178;4.500;2023-05-09T00:33:22;30.61;29.53;32.20;;
66463;Laerm;56827;52.178;4.500;2023-05-09T00:33:35;30.53;28.89;32.52;;
66463;Laerm;56827;52.178;4.500;2023-05-09T00:33:46;30.45;29.24;31.74;;
66463;Laerm;56827;52.178;4.500;2023-05-09T00:33:56;30.51;28.97;32.13;;
66463;Laerm;56827;52.178;4.500;2023-05-09T00:34:06;30.88;29.55;32.08;;
66463;Laerm;56827;52.178;4.500;2023-05-09T00:34:16;30.78;29.26;32.70;;
66463;Laerm;56827;52.178;4.500;2023-05-09T00:34:26;31.11;29.51;32.43;;
66463;Laerm;56827;52.178;4.500;2023-05-09T00:34:37;30.59;29.23;32.15;;
66463;Laerm;56827;52.178;4.500;2023-05-09T00:34:47;30.56;29.42;31.88;;
66463;Laerm;56827;52.178;4.500;2023-05-09T00:34:57;30.92;29.37;32.59;;
66463;Laerm;56827;52.178;4.500;2023-05-09T00:35:08;31.12;29.52;32.82;;
66463;Laerm;56827;52.178;4.500;2023-05-09T00:35:18;30.82;29.61;32.29;;
66463;Laerm;56827;52.178;4.500;2023-05-09T00:35:29;31.47;29.74;34.09;;
66463;Laerm;56827;52.178;4.500;2023-05-09T00:35:41;30.76;28.99;32.17;;
66463;Laerm;56827;52.178;4.500;2023-05-09T00:35:52;30.95;29.50;32.40;;
66463;Laerm;56827;52.178;4.500;2023-05-09T00:36:02;31.82;30.38;33.64;;
66463;Laerm;56827;52.178;4.500;2023-05-09T00:36:13;31.47;29.90;33.15;;
66463;Laerm;56827;52.178;4.500;2023-05-09T00:36:23;31.36;29.73;33.53;;
66463;Laerm;56827;52.178;4.500;2023-05-09T00:36:33;32.00;30.22;33.23;;
66463;Laerm;56827;52.178;4.500;2023-05-09T00:36:43;31.54;29.88;33.17;;
66463;Laerm;56827;52.178;4.500;2023-05-09T00:36:54;30.94;29.54;32.86;;
66463;Laerm;56827;52.178;4.500;2023-05-09T00:37:04;30.58;28.96;31.83;;
66463;Laerm;56827;52.178;4.500;2023-05-09T00:37:15;30.36;28.76;32.01;;
66463;Laerm;56827;52.178;4.500;2023-05-09T00:37:28;30.73;29.34;32.16;;
66463;Laerm;56827;52.178;4.500;2023-05-09T00:37:39;30.60;29.39;32.44;;
66463;Laerm;56827;52.178;4.500;2023-05-09T00:37:49;30.38;29.07;31.65;;
66463;Laerm;56827;52.178;4.500;2023-05-09T00:38:00;30.67;29.55;32.00;;
66463;Laerm;56827;52.178;4.500;2023-05-09T00:38:10;31.14;29.82;33.36;;
66463;Laerm;56827;52.178;4.500;2023-05-09T00:38:23;32.73;30.57;34.73;;
66463;Laerm;56827;52.178;4.500;2023-05-09T00:38:33;32.46;30.80;33.97;;
66463;Laerm;56827;52.178;4.500;2023-05-09T00:38:44;31.84;29.69;33.25;;
66463;Laerm;56827;52.178;4.500;2023-05-09T00:38:54;31.45;29.92;33.81;;
66463;Laerm;56827;52.178;4.500;2023-05-09T00:39:04;32.71;30.20;37.71;;
66463;Laerm;56827;52.178;4.500;2023-05-09T00:39:14;31.06;29.55;35.32;;
66463;Laerm;56827;52.178;4.500;2023-05-09T00:39:24;30.80;29.34;32.32;;
66463;Laerm;56827;52.178;4.500;2023-05-09T00:39:35;30.55;29.26;31.76;;
66463;Laerm;56827;52.178;4.500;2023-05-09T00:39:46;31.57;30.32;33.92;;
66463;Laerm;56827;52.178;4.500;2023-05-09T00:39:56;30.84;29.57;33.45;;
66463;Laerm;56827;52.178;4.500;2023-05-09T00:40:06;30.66;29.03;32.81;;
66463;Laerm;56827;52.178;4.500;2023-05-09T00:40:18;32.91;29.50;34.91;;
66463;Laerm;56827;52.178;4.500;2023-05-09T00:40:28;32.44;31.01;33.89;;
66463;Laerm;56827;52.178;4.500;2023-05-09T00:40:38;31.26;29.58;32.42;;
66463;Laerm;56827;52.178;4.500;2023-05-09T00:40:48;31.27;29.52;33.80;;
66463;Laerm;56827;52.178;4.500;2023-05-09T00:40:59;30.88;29.56;32.32;;
66463;Laerm;56827;52.178;4.500;2023-05-09T00:41:09;30.76;29.62;31.94;;
66463;Laerm;56827;52.178;4.500;2023-05-09T00:41:19;31.21;29.29;32.81;;
66463;Laerm;56827;52.178;4.500;2023-05-09T00:41:30;30.89;29.66;32.34;;
66463;Laerm;56827;52.178;4.500;2023-05-09T00:41:40;31.66;30.37;33.27;;
66463;Laerm;56827;52.178;4.500;2023-05-09T00:41:51;31.35;30.10;33.16;;
66463;Laerm;56827;52.178;4.500;2023-05-09T00:42:01;31.82;29.97;33.53;;
66463;Laerm;56827;52.178;4.500;2023-05-09T00:42:15;31.41;29.89;33.45;;
66463;Laerm;56827;52.178;4.500;2023-05-09T00:42:25;32.48;30.65;37.06;;
66463;Laerm;56827;52.178;4.500;2023-05-09T00:42:35;33.44;31.05;35.57;;
66463;Laerm;56827;52.178;4.500;2023-05-09T00:42:46;35.33;32.82;38.80;;
66463;Laerm;56827;52.178;4.500;2023-05-09T00:42:57;32.26;30.71;34.10;;
66463;Laerm;56827;52.178;4.500;2023-05-09T00:43:07;33.00;31.08;35.19;;
66463;Laerm;56827;52.178;4.500;2023-05-09T00:43:18;31.30;29.80;32.91;;
66463;Laerm;56827;52.178;4.500;2023-05-09T00:43:28;31.25;29.86;32.79;;
66463;Laerm;56827;52.178;4.500;2023-05-09T00:43:38;31.11;29.71;32.85;;
66463;Laerm;56827;52.178;4.500;2023-05-09T00:43:49;31.39;29.81;33.56;;
66463;Laerm;56827;52.178;4.500;2023-05-09T00:43:59;31.36;29.42;33.02;;
66463;Laerm;56827;52.178;4.500;2023-05-09T00:44:09;31.39;30.23;32.60;;
66463;Laerm;56827;52.178;4.500;2023-05-09T00:44:19;31.18;29.95;32.55;;
66463;Laerm;56827;52.178;4.500;2023-05-09T00:44:29;31.13;29.81;32.55;;
66463;Laerm;56827;52.178;4.500;2023-05-09T00:44:40;30.88;29.06;32.82;;
66463;Laerm;56827;52.178;4.500;2023-05-09T00:44:50;31.02;29.67;32.32;;
66463;Laerm;56827;52.178;4.500;2023-05-09T00:45:00;30.96;29.59;32.38;;
66463;Laerm;56827;52.178;4.500;2023-05-09T00:45:10;31.35;29.62;35.57;;
66463;Laerm;56827;52.178;4.500;2023-05-09T00:45:21;30.96;28.87;32.56;;
66463;Laerm;56827;52.178;4.500;2023-05-09T00:45:31;31.24;29.83;33.03;;
66463;Laerm;56827;52.178;4.500;2023-05-09T00:45:42;31.23;29.71;33.00;;
66463;Laerm;56827;52.178;4.500;2023-05-09T00:45:52;31.52;30.04;33.49;;
66463;Laerm;56827;52.178;4.500;2023-05-09T00:46:02;31.59;30.29;33.97;;
66463;Laerm;56827;52.178;4.500;2023-05-09T00:46:13;31.65;30.35;33.26;;
66463;Laerm;56827;52.178;4.500;2023-05-09T00:46:23;31.35;30.15;32.71;;
66463;Laerm;56827;52.178;4.500;2023-05-09T00:46:34;31.34;29.82;33.04;;
66463;Laerm;56827;52.178;4.500;2023-05-09T00:46:44;31.18;29.65;32.49;;
66463;Laerm;56827;52.178;4.500;2023-05-09T00:46:54;31.38;30.12;33.01;;
66463;Laerm;56827;52.178;4.500;2023-05-09T00:47:05;31.22;29.58;34.04;;
66463;Laerm;56827;52.178;4.500;2023-05-09T00:47:15;30.86;29.33;32.42;;
66463;Laerm;56827;52.178;4.500;2023-05-09T00:47:31;30.83;29.36;32.50;;
66463;Laerm;56827;52.178;4.500;2023-05-09T00:47:41;30.76;29.29;32.68;;
66463;Laerm;56827;52.178;4.500;2023-05-09T00:47:52;30.85;29.46;32.52;;
66463;Laerm;56827;52.178;4.500;2023-05-09T00:48:02;31.69;29.65;34.06;;
66463;Laerm;56827;52.178;4.500;2023-05-09T00:48:13;32.79;29.94;35.35;;
66463;Laerm;56827;52.178;4.500;2023-05-09T00:48:23;30.91;29.53;32.83;;
66463;Laerm;56827;52.178;4.500;2023-05-09T00:48:34;31.26;30.03;32.57;;
66463;Laerm;56827;52.178;4.500;2023-05-09T00:48:44;31.80;30.02;36.43;;
66463;Laerm;56827;52.178;4.500;2023-05-09T00:48:55;31.16;29.79;32.71;;
66463;Laerm;56827;52.178;4.500;2023-05-09T00:49:05;31.04;29.55;32.65;;
66463;Laerm;56827;52.178;4.500;2023-05-09T00:49:17;32.20;30.79;36.17;;
66463;Laerm;56827;52.178;4.500;2023-05-09T00:49:27;31.79;29.95;33.31;;
66463;Laerm;56827;52.178;4.500;2023-05-09T00:49:37;31.43;29.80;38.50;;
66463;Laerm;56827;52.178;4.500;2023-05-09T00:49:47;31.19;29.86;33.65;;
66463;Laerm;56827;52.178;4.500;2023-05-09T00:49:58;31.31;29.67;32.94;;
66463;Laerm;56827;52.178;4.500;2023-05-09T00:50:08;31.46;30.07;33.86;;
66463;Laerm;56827;52.178;4.500;2023-05-09T00:50:19;31.33;29.73;37.54;;
66463;Laerm;56827;52.178;4.500;2023-05-09T00:50:29;39.53;29.66;54.96;;
66463;Laerm;56827;52.178;4.500;2023-05-09T00:50:40;34.31;29.86;48.32;;
66463;Laerm;56827;52.178;4.500;2023-05-09T00:50:52;36.58;29.94;52.34;;
66463;Laerm;56827;52.178;4.500;2023-05-09T00:51:03;32.59;29.02;52.87;;
66463;Laerm;56827;52.178;4.500;2023-05-09T00:51:14;30.81;29.55;32.62;;
66463;Laerm;56827;52.178;4.500;2023-05-09T00:51:24;31.12;29.67;33.33;;
66463;Laerm;56827;52.178;4.500;2023-05-09T00:51:35;30.88;29.82;33.09;;
66463;Laerm;56827;52.178;4.500;2023-05-09T00:51:45;30.72;29.64;32.11;;
66463;Laerm;56827;52.178;4.500;2023-05-09T00:51:56;31.57;29.76;36.71;;
66463;Laerm;56827;52.178;4.500;2023-05-09T00:52:09;31.69;29.94;35.39;;
66463;Laerm;56827;52.178;4.500;2023-05-09T00:52:19;32.72;29.98;38.65;;
66463;Laerm;56827;52.178;4.500;2023-05-09T00:52:32;33.69;30.55;42.92;;
66463;Laerm;56827;52.178;4.500;2023-05-09T00:52:42;33.36;30.82;39.63;;
66463;Laerm;56827;52.178;4.500;2023-05-09T00:52:53;33.74;30.65;39.86;;
66463;Laerm;56827;52.178;4.500;2023-05-09T00:53:03;32.98;29.82;39.18;;
66463;Laerm;56827;52.178;4.500;2023-05-09T00:53:13;32.89;30.28;38.50;;
66463;Laerm;56827;52.178;4.500;2023-05-09T00:53:24;32.56;30.60;37.03;;
66463;Laerm;56827;52.178;4.500;2023-05-09T00:53:34;32.92;30.84;35.94;;
66463;Laerm;56827;52.178;4.500;2023-05-09T00:53:45;33.04;30.63;36.71;;
66463;Laerm;56827;52.178;4.500;2023-05-09T00:53:55;32.38;30.19;35.19;;
66463;Laerm;56827;52.178;4.500;2023-05-09T00:54:06;32.12;30.26;34.44;;
66463;Laerm;56827;52.178;4.500;2023-05-09T00:54:16;32.09;29.81;35.32;;
66463;Laerm;56827;52.178;4.500;2023-05-09T00:54:26;31.66;29.88;33.58;;
66463;Laerm;56827;52.178;4.500;2023-05-09T00:54:36;34.09;30.68;39.66;;
66463;Laerm;56827;52.178;4.500;2023-05-09T00:54:47;32.48;30.78;34.73;;
66463;Laerm;56827;52.178;4.500;2023-05-09T00:54:58;33.48;31.25;37.03;;
66463;Laerm;56827;52.178;4.500;2023-05-09T00:55:09;33.43;31.62;35.02;;
66463;Laerm;56827;52.178;4.500;2023-05-09T00:55:19;33.44;31.16;37.17;;
66463;Laerm;56827;52.178;4.500;2023-05-09T00:55:29;33.55;31.35;36.12;;
66463;Laerm;56827;52.178;4.500;2023-05-09T00:55:40;31.62;30.34;32.99;;
66463;Laerm;56827;52.178;4.500;2023-05-09T00:55:50;31.30;29.85;33.25;;
66463;Laerm;56827;52.178;4.500;2023-05-09T00:56:01;33.06;30.36;36.18;;
66463;Laerm;56827;52.178;4.500;2023-05-09T00:56:11;34.11;32.59;35.72;;
66463;Laerm;56827;52.178;4.500;2023-05-09T00:56:22;32.85;30.09;35.46;;
66463;Laerm;56827;52.178;4.500;2023-05-09T00:56:33;31.55;29.91;33.07;;
66463;Laerm;56827;52.178;4.500;2023-05-09T00:56:43;31.93;30.49;33.27;;
66463;Laerm;56827;52.178;4.500;2023-05-09T00:56:54;31.11;29.34;33.03;;
66463;Laerm;56827;52.178;4.500;2023-05-09T00:57:04;31.76;29.90;34.40;;
66463;Laerm;56827;52.178;4.500;2023-05-09T00:57:15;31.15;29.80;33.30;;
66463;Laerm;56827;52.178;4.500;2023-05-09T00:57:26;31.09;29.55;32.74;;
66463;Laerm;56827;52.178;4.500;2023-05-09T00:57:36;31.42;30.23;32.77;;
66463;Laerm;56827;52.178;4.500;2023-05-09T00:57:46;31.42;29.94;33.05;;
66463;Laerm;56827;52.178;4.500;2023-05-09T00:57:56;30.94;29.59;32.60;;
66463;Laerm;56827;52.178;4.500;2023-05-09T00:58:07;30.95;29.62;32.54;;
66463;Laerm;56827;52.178;4.500;2023-05-09T00:58:17;31.63;30.05;34.18;;
66463;Laerm;56827;52.178;4.500;2023-05-09T00:58:28;31.82;30.01;44.54;;
66463;Laerm;56827;52.178;4.500;2023-05-09T00:58:38;32.75;30.28;35.20;;
66463;Laerm;56827;52.178;4.500;2023-05-09T00:58:49;31.80;30.02;36.00;;
66463;Laerm;56827;52.178;4.500;2023-05-09T00:58:59;31.81;29.59;33.41;;
66463;Laerm;56827;52.178;4.500;2023-05-09T00:59:09;31.65;29.94;34.00;;
66463;Laerm;56827;52.178;4.500;2023-05-09T00:59:20;31.87;30.17;36.41;;
66463;Laerm;56827;52.178;4.500;2023-05-09T00:59:31;31.94;30.29;37.16;;